Time;durP1;ratioP1;P1;durP2;ratioP2;P2;SDS_P1;SDS_P2;PMS_P1;PMS_P2;Temp;Humidity;BMP_temperature;BMP_pressure;BME280_temperature;BME280_humidity;BME280_pressure;Samples;Min_cycle;Max_cycle;Signal;HPM_P1;HPM_P2
2021/09/29 00:02:26;;;;;;;7.10;3.15;;;;;;;;;;8192704;28;20385;-73
2021/09/29 00:06:31;;;;;;;8.43;4.03;;;;;;;;;;8205203;28;20485;-73
2021/09/29 00:10:38;;;;;;;7.50;3.85;;;;;;;;;;8193577;28;20449;-73
2021/09/29 00:14:43;;;;;;;8.88;4.57;;;;;;;;;;8193342;28;20459;-73
2021/09/29 00:18:48;;;;;;;7.55;4.00;;;;;;;;;;8193602;28;20699;-72
2021/09/29 00:22:53;;;;;;;10.60;4.60;;;;;;;;;;8192853;28;20476;-73
2021/09/29 00:26:58;;;;;;;10.30;4.55;;;;;;;;;;8192327;28;20485;-72
2021/09/29 00:31:05;;;;;;;8.02;4.35;;;;;;;;;;8190861;28;20381;-73
2021/09/29 00:35:13;;;;;;;6.53;4.15;;;;;;;;;;8193104;28;20389;-74
2021/09/29 00:39:19;;;;;;;8.10;4.45;;;;;;;;;;8191069;28;20450;-73
2021/09/29 00:43:24;;;;;;;9.23;4.28;;;;;;;;;;8194078;28;20380;-72
2021/09/29 00:47:31;;;;;;;8.65;4.95;;;;;;;;;;8190377;28;20473;-73
2021/09/29 00:51:37;;;;;;;10.98;4.78;;;;;;;;;;8192556;28;20346;-73
2021/09/29 00:55:43;;;;;;;12.10;4.60;;;;;;;;;;8191485;28;20376;-73
2021/09/29 00:59:48;;;;;;;11.38;5.15;;;;;;;;;;8191537;28;20493;-73
2021/09/29 01:03:54;;;;;;;12.02;5.10;;;;;;;;;;8195084;28;20072;-73
2021/09/29 01:08:12;;;;;;;7.70;4.80;;;;;;;;;;8197509;28;20050;-73
2021/09/29 01:12:46;;;;;;;9.38;4.68;;;;;;;;;;8198127;28;20480;-73
2021/09/29 01:16:53;;;;;;;9.25;5.30;;;;;;;;;;8197087;28;20369;-73
2021/09/29 01:21:14;;;;;;;9.40;4.63;;;;;;;;;;8212437;28;20473;-73
2021/09/29 01:25:57;;;;;;;18.98;4.90;;;;;;;;;;8197842;28;20054;-72
2021/09/29 01:30:03;;;;;;;9.68;4.95;;;;;;;;;;8192781;28;20378;-73
2021/09/29 01:34:10;;;;;;;10.93;5.30;;;;;;;;;;8198186;28;20388;-74
2021/09/29 01:38:16;;;;;;;8.30;4.07;;;;;;;;;;8196055;28;20507;-73
2021/09/29 01:42:23;;;;;;;14.20;5.68;;;;;;;;;;8195931;28;20062;-74
2021/09/29 01:46:30;;;;;;;7.30;4.50;;;;;;;;;;8211782;28;20346;-73
2021/09/29 01:50:36;;;;;;;8.85;4.32;;;;;;;;;;8197350;28;20361;-73
2021/09/29 01:54:47;;;;;;;12.43;4.57;;;;;;;;;;8197164;28;20484;-73
2021/09/29 01:58:53;;;;;;;8.10;4.53;;;;;;;;;;8181284;28;20453;-73
2021/09/29 02:02:59;;;;;;;9.65;5.30;;;;;;;;;;8195088;28;20054;-72
2021/09/29 02:07:05;;;;;;;9.13;5.10;;;;;;;;;;8195005;28;20372;-73
2021/09/29 02:11:10;;;;;;;10.32;4.35;;;;;;;;;;8197020;28;20330;-72
2021/09/29 02:15:15;;;;;;;8.70;4.22;;;;;;;;;;8194412;28;20042;-72
2021/09/29 02:19:20;;;;;;;6.82;4.05;;;;;;;;;;8196582;28;20050;-72
2021/09/29 02:23:25;;;;;;;10.25;4.78;;;;;;;;;;8194375;28;20376;-72
2021/09/29 02:27:30;;;;;;;11.75;4.70;;;;;;;;;;8194498;28;20046;-72
2021/09/29 02:31:36;;;;;;;11.70;4.90;;;;;;;;;;8196150;28;20041;-73
2021/09/29 02:35:41;;;;;;;9.60;4.57;;;;;;;;;;8194052;28;20465;-72
2021/09/29 02:39:46;;;;;;;8.63;4.10;;;;;;;;;;8196355;28;20401;-73
2021/09/29 02:43:51;;;;;;;10.73;4.82;;;;;;;;;;8194617;28;20361;-73
2021/09/29 02:47:56;;;;;;;13.57;4.40;;;;;;;;;;8194474;28;20449;-72
2021/09/29 02:52:01;;;;;;;8.23;4.10;;;;;;;;;;8195208;28;20469;-73
2021/09/29 02:56:06;;;;;;;10.63;4.63;;;;;;;;;;8195690;28;20076;-73
2021/09/29 03:00:13;;;;;;;10.35;4.28;;;;;;;;;;8193560;28;20357;-73
2021/09/29 03:04:18;;;;;;;7.20;4.07;;;;;;;;;;8192989;28;20380;-73
2021/09/29 03:08:23;;;;;;;7.78;4.53;;;;;;;;;;8194110;28;20374;-73
2021/09/29 03:12:28;;;;;;;12.23;4.80;;;;;;;;;;8195074;28;20366;-73
2021/09/29 03:16:35;;;;;;;6.13;3.65;;;;;;;;;;8210170;28;20353;-73
2021/09/29 03:20:39;;;;;;;11.07;4.40;;;;;;;;;;8193740;28;20508;-72
2021/09/29 03:24:44;;;;;;;8.10;3.60;;;;;;;;;;8193975;28;20034;-73
2021/09/29 03:28:49;;;;;;;12.75;4.50;;;;;;;;;;8193635;28;20369;-73
2021/09/29 03:32:55;;;;;;;9.70;4.45;;;;;;;;;;8195654;28;20045;-73
2021/09/29 03:37:00;;;;;;;8.82;4.93;;;;;;;;;;8192261;28;20033;-72
2021/09/29 03:41:05;;;;;;;9.15;4.78;;;;;;;;;;8193388;28;20484;-73
2021/09/29 03:45:13;;;;;;;9.63;5.03;;;;;;;;;;8192466;28;20499;-73
2021/09/29 03:49:18;;;;;;;11.18;4.72;;;;;;;;;;8195693;28;20496;-73
2021/09/29 03:53:23;;;;;;;9.73;4.85;;;;;;;;;;8193659;28;20492;-73
2021/09/29 03:57:28;;;;;;;9.93;4.35;;;;;;;;;;8193240;28;20377;-73
2021/09/29 04:01:33;;;;;;;7.60;4.47;;;;;;;;;;8191259;28;20072;-73
2021/09/29 04:05:40;;;;;;;11.35;5.38;;;;;;;;;;8194092;28;20492;-74
2021/09/29 04:09:46;;;;;;;9.95;4.93;;;;;;;;;;8192921;28;20496;-73
2021/09/29 04:13:51;;;;;;;6.55;4.22;;;;;;;;;;8193271;28;20050;-72
2021/09/29 04:17:56;;;;;;;8.52;5.03;;;;;;;;;;8191929;28;20365;-73
2021/09/29 04:22:02;;;;;;;5.47;3.58;;;;;;;;;;8192394;28;20465;-72
2021/09/29 04:26:08;;;;;;;9.85;4.53;;;;;;;;;;8175792;28;20388;-73
2021/09/29 04:30:15;;;;;;;10.40;5.07;;;;;;;;;;8191994;28;20487;-72
2021/09/29 04:34:19;;;;;;;11.38;4.97;;;;;;;;;;8192086;28;20412;-73
2021/09/29 04:38:24;;;;;;;6.93;4.63;;;;;;;;;;8192094;28;20045;-72
2021/09/29 04:42:29;;;;;;;11.35;5.22;;;;;;;;;;8176113;28;20046;-73
2021/09/29 04:46:35;;;;;;;8.48;5.05;;;;;;;;;;8162324;28;20466;-73
2021/09/29 04:50:40;;;;;;;9.57;5.13;;;;;;;;;;8162834;28;20319;-73
2021/09/29 04:54:45;;;;;;;8.73;4.45;;;;;;;;;;8163579;28;20365;-73
2021/09/29 04:58:50;;;;;;;13.60;5.40;;;;;;;;;;8160527;28;20043;-73
2021/09/29 05:02:55;;;;;;;10.40;5.47;;;;;;;;;;8159692;28;20046;-72
2021/09/29 05:07:00;;;;;;;9.20;4.90;;;;;;;;;;8158725;28;20501;-73
2021/09/29 05:11:24;;;;;;;8.57;4.60;;;;;;;;;;8161208;28;20462;-73
2021/09/29 05:15:29;;;;;;;12.02;4.68;;;;;;;;;;8159755;28;20042;-73
2021/09/29 05:19:35;;;;;;;11.48;4.82;;;;;;;;;;8159171;28;20355;-73
2021/09/29 05:23:40;;;;;;;9.43;5.53;;;;;;;;;;8159303;28;20377;-73
2021/09/29 05:27:48;;;;;;;9.43;5.57;;;;;;;;;;8158244;28;20389;-73
2021/09/29 05:31:53;;;;;;;17.83;5.57;;;;;;;;;;8160190;28;20324;-73
2021/09/29 05:35:59;;;;;;;10.63;6.13;;;;;;;;;;8159946;28;20382;-73
2021/09/29 05:40:05;;;;;;;13.00;6.95;;;;;;;;;;8159077;28;20087;-73
2021/09/29 05:44:11;;;;;;;14.13;7.30;;;;;;;;;;8159077;28;20050;-74
2021/09/29 05:48:16;;;;;;;13.50;6.80;;;;;;;;;;8159635;28;20079;-73
2021/09/29 05:52:21;;;;;;;12.82;7.22;;;;;;;;;;8177808;28;20469;-74
2021/09/29 05:56:26;;;;;;;15.45;7.57;;;;;;;;;;8196865;28;20046;-73
2021/09/29 06:00:32;;;;;;;12.85;6.93;;;;;;;;;;8206200;28;20076;-72
2021/09/29 06:04:38;;;;;;;15.02;7.85;;;;;;;;;;8212205;28;20503;-73
2021/09/29 06:08:43;;;;;;;13.85;7.40;;;;;;;;;;8231179;28;20483;-73
2021/09/29 06:12:48;;;;;;;15.68;7.88;;;;;;;;;;8228354;28;20072;-73
2021/09/29 06:16:59;;;;;;;14.20;7.85;;;;;;;;;;8229187;28;20046;-74
2021/09/29 06:21:07;;;;;;;17.73;7.70;;;;;;;;;;8227879;28;20053;-72
2021/09/29 06:25:13;;;;;;;16.00;8.30;;;;;;;;;;8210554;28;20368;-72
2021/09/29 06:29:18;;;;;;;15.85;7.50;;;;;;;;;;8210933;28;20519;-73
2021/09/29 06:33:23;;;;;;;17.45;8.90;;;;;;;;;;8228644;28;20447;-73
2021/09/29 06:37:28;;;;;;;13.32;7.82;;;;;;;;;;8211696;28;20045;-72
2021/09/29 06:41:33;;;;;;;18.17;7.40;;;;;;;;;;8228222;28;20056;-73
2021/09/29 06:45:41;;;;;;;15.93;8.20;;;;;;;;;;8211583;28;20342;-73
2021/09/29 06:49:46;;;;;;;17.95;8.77;;;;;;;;;;8227631;28;20459;-72
2021/09/29 06:53:51;;;;;;;17.30;7.90;;;;;;;;;;8227284;28;20071;-73
2021/09/29 06:57:56;;;;;;;17.33;7.70;;;;;;;;;;8226667;28;20045;-73
2021/09/29 07:02:01;;;;;;;12.75;8.63;;;;;;;;;;8209291;28;20354;-73
2021/09/29 07:06:06;;;;;;;12.23;7.82;;;;;;;;;;8193579;28;20077;-73
2021/09/29 07:10:13;;;;;;;13.18;7.32;;;;;;;;;;8196933;28;20041;-72
2021/09/29 07:14:19;;;;;;;15.73;8.88;;;;;;;;;;8193814;28;20057;-72
2021/09/29 07:18:28;;;;;;;16.48;8.35;;;;;;;;;;8194814;28;20373;-73
2021/09/29 07:22:33;;;;;;;16.90;8.50;;;;;;;;;;8194529;28;20485;-73
2021/09/29 07:26:38;;;;;;;16.23;8.43;;;;;;;;;;8195153;28;20061;-73
2021/09/29 07:30:45;;;;;;;18.10;8.23;;;;;;;;;;8194401;28;20376;-74
2021/09/29 07:34:50;;;;;;;17.30;7.50;;;;;;;;;;8209288;28;20049;-73
2021/09/29 07:38:55;;;;;;;16.13;7.07;;;;;;;;;;8208897;28;20046;-73
2021/09/29 07:43:00;;;;;;;17.85;8.45;;;;;;;;;;8195019;28;20453;-73
2021/09/29 07:47:06;;;;;;;16.30;8.32;;;;;;;;;;8195512;28;20461;-73
2021/09/29 07:51:13;;;;;;;15.48;8.40;;;;;;;;;;8193784;28;20484;-73
2021/09/29 07:55:19;;;;;;;12.80;6.88;;;;;;;;;;8193124;28;20449;-72
2021/09/29 07:59:25;;;;;;;14.20;7.30;;;;;;;;;;8193865;28;20515;-72
2021/09/29 08:03:29;;;;;;;19.88;8.40;;;;;;;;;;8225994;28;20461;-73
2021/09/29 08:07:34;;;;;;;16.65;8.15;;;;;;;;;;8225357;28;20061;-73
2021/09/29 08:11:39;;;;;;;16.60;7.97;;;;;;;;;;8225154;28;20583;-73
2021/09/29 08:15:44;;;;;;;19.08;8.15;;;;;;;;;;8226123;28;20441;-73
2021/09/29 08:19:50;;;;;;;17.42;7.65;;;;;;;;;;8225492;28;20049;-73
2021/09/29 08:24:01;;;;;;;17.10;8.50;;;;;;;;;;8226426;28;20460;-73
2021/09/29 08:28:26;;;;;;;17.08;8.65;;;;;;;;;;8210267;28;20441;-72
2021/09/29 08:32:38;;;;;;;13.77;8.15;;;;;;;;;;8225581;28;20457;-72
2021/09/29 08:36:49;;;;;;;18.88;9.23;;;;;;;;;;8225567;28;20041;-73
2021/09/29 08:41:00;;;;;;;19.55;9.80;;;;;;;;;;8108429;28;20076;-74
2021/09/29 08:45:11;;;;;;;18.83;9.60;;;;;;;;;;8191845;28;20364;-72
2021/09/29 08:49:26;;;;;;;17.08;7.85;;;;;;;;;;8193945;28;20464;-73
2021/09/29 09:15:55;;;;;;;14.80;8.20;;;;;;;;;;8193593;28;20034;-73
2021/09/29 09:20:25;;;;;;;20.33;9.82;;;;;;;;;;8194363;28;20492;-73
2021/09/29 09:24:35;;;;;;;20.35;9.15;;;;;;;;;;8198219;28;20057;-73
2021/09/29 09:28:40;;;;;;;16.13;8.50;;;;;;;;;;8200328;28;20469;-73
2021/09/29 09:32:50;;;;;;;17.42;8.63;;;;;;;;;;8181645;28;20376;-73
2021/09/29 09:36:56;;;;;;;17.77;8.85;;;;;;;;;;8199180;28;20352;-72
2021/09/29 09:41:02;;;;;;;14.68;8.02;;;;;;;;;;8200944;28;20468;-73
2021/09/29 09:45:08;;;;;;;19.50;9.30;;;;;;;;;;8196978;28;20453;-73
2021/09/29 09:49:14;;;;;;;15.23;8.35;;;;;;;;;;8195808;28;20468;-73
2021/09/29 09:53:19;;;;;;;16.65;7.78;;;;;;;;;;8180436;28;20049;-73
2021/09/29 09:57:24;;;;;;;20.70;9.45;;;;;;;;;;8197917;28;20347;-73
2021/09/29 10:01:31;;;;;;;19.13;9.43;;;;;;;;;;8195663;28;20050;-73
2021/09/29 10:05:36;;;;;;;19.65;9.13;;;;;;;;;;8196124;28;20517;-73
2021/09/29 10:09:46;;;;;;;20.90;8.93;;;;;;;;;;8180165;28;20473;-73
2021/09/29 10:22:55;;;;;;;20.85;8.80;;;;;;;;;;8196011;28;20491;-74
2021/09/29 10:27:12;;;;;;;19.35;9.30;;;;;;;;;;8197777;28;20361;-73
2021/09/29 10:31:32;;;;;;;24.25;9.57;;;;;;;;;;8196001;28;20499;-73
2021/09/29 10:35:47;;;;;;;18.15;8.98;;;;;;;;;;8194879;28;20381;-72
2021/09/29 10:44:22;;;;;;;23.75;11.63;;;;;;;;;;8197385;28;20046;-75
2021/09/29 10:48:42;;;;;;;20.65;9.93;;;;;;;;;;8197000;28;20354;-73
2021/09/29 10:53:11;;;;;;;15.43;9.25;;;;;;;;;;8196565;28;20477;-73
2021/09/29 11:29:17;;;;;;;21.90;11.20;;;;;;;;;;8180904;28;20531;-73
2021/09/29 11:33:36;;;;;;;23.67;12.10;;;;;;;;;;8196182;28;20480;-72
2021/09/29 12:09:01;;;;;;;19.70;11.05;;;;;;;;;;8178866;28;20593;-73
2021/09/29 12:13:08;;;;;;;24.15;11.68;;;;;;;;;;8195398;28;20445;-72
2021/09/29 12:17:19;;;;;;;24.00;10.95;;;;;;;;;;8177944;28;20503;-73
2021/09/29 12:21:34;;;;;;;18.13;10.30;;;;;;;;;;8193651;28;20606;-73
2021/09/29 12:25:43;;;;;;;19.48;10.75;;;;;;;;;;8193543;28;20457;-72
2021/09/29 12:29:51;;;;;;;19.95;10.27;;;;;;;;;;8195208;28;20393;-72
2021/09/29 12:33:59;;;;;;;;;;;;;;;;;;8196394;28;20353;-72
2021/09/29 12:38:05;;;;;;;17.45;9.55;;;;;;;;;;8193580;28;20246;-72
2021/09/29 12:42:11;;;;;;;20.65;9.93;;;;;;;;;;8193969;28;20474;-72
2021/09/29 12:46:17;;;;;;;20.60;10.52;;;;;;;;;;8190530;28;20478;-73
2021/09/29 12:50:27;;;;;;;16.60;10.07;;;;;;;;;;8191227;28;20453;-72
2021/09/29 12:54:32;;;;;;;18.90;10.48;;;;;;;;;;8173778;28;20467;-72
2021/09/29 12:58:37;;;;;;;28.90;10.45;;;;;;;;;;8192732;28;20364;-73
2021/09/29 13:02:42;;;;;;;16.20;10.35;;;;;;;;;;8178612;28;20604;-73
2021/09/29 13:06:46;;;;;;;21.05;9.50;;;;;;;;;;8167381;28;20333;-72
2021/09/29 13:10:49;;;;;;;16.15;9.32;;;;;;;;;;8181123;28;20397;-73
2021/09/29 13:14:55;;;;;;;17.65;9.93;;;;;;;;;;8197605;28;20060;-72
2021/09/29 13:19:02;;;;;;;17.13;9.27;;;;;;;;;;8201695;28;20445;-72
2021/09/29 13:23:12;;;;;;;18.23;9.73;;;;;;;;;;8199479;28;20412;-72
2021/09/29 13:27:30;;;;;;;15.73;10.02;;;;;;;;;;8182285;28;20497;-72
2021/09/29 13:40:36;;;;;;;16.38;9.55;;;;;;;;;;8200628;28;20325;-73
2021/09/29 13:44:42;;;;;;;14.82;8.75;;;;;;;;;;8200025;28;20389;-72
2021/09/29 13:48:48;;;;;;;16.42;9.30;;;;;;;;;;8181032;28;20046;-72
2021/09/29 13:52:53;;;;;;;20.48;9.90;;;;;;;;;;8196518;28;20456;-71
2021/09/29 13:57:10;;;;;;;14.73;8.75;;;;;;;;;;8197733;28;20477;-72
2021/09/29 14:01:45;;;;;;;24.00;9.75;;;;;;;;;;8199173;28;20462;-72
2021/09/29 14:14:54;;;;;;;22.50;9.32;;;;;;;;;;8196996;28;20487;-72
2021/09/29 14:32:14;;;;;;;18.40;9.73;;;;;;;;;;8196129;28;20484;-72
2021/09/29 14:36:19;;;;;;;18.80;10.02;;;;;;;;;;8178473;28;20469;-72
2021/09/29 14:40:25;;;;;;;20.75;10.48;;;;;;;;;;8199355;28;20365;-73
2021/09/29 14:44:30;;;;;;;20.58;11.32;;;;;;;;;;8179640;28;20481;-73
2021/09/29 14:48:36;;;;;;;22.73;10.32;;;;;;;;;;8195399;28;20360;-73
2021/09/29 14:52:42;;;;;;;19.35;10.15;;;;;;;;;;8178943;28;20076;-73
2021/09/29 14:56:47;;;;;;;19.95;10.25;;;;;;;;;;8195445;28;20042;-72
2021/09/29 15:00:53;;;;;;;27.35;11.88;;;;;;;;;;8179118;28;20365;-72
2021/09/29 15:04:58;;;;;;;25.00;12.35;;;;;;;;;;8178663;28;20058;-72
2021/09/29 15:09:04;;;;;;;45.85;21.08;;;;;;;;;;8196148;28;20353;-72
2021/09/29 15:13:12;;;;;;;66.10;28.48;;;;;;;;;;8195527;28;20371;-73
2021/09/29 15:17:22;;;;;;;303.05;115.45;;;;;;;;;;8194298;28;20516;-72
2021/09/29 15:26:29;;;;;;;127.97;50.63;;;;;;;;;;8194981;28;20516;-73
2021/09/29 15:48:16;;;;;;;29.00;16.75;;;;;;;;;;8195089;28;20064;-73
2021/09/29 15:52:41;;;;;;;20.55;13.18;;;;;;;;;;8194265;28;20476;-72
2021/09/29 16:01:22;;;;;;;75.97;33.17;;;;;;;;;;8354743;27;1912768;-73
2021/09/29 16:05:38;;;;;;;49.45;23.67;;;;;;;;;;8386321;28;20975;-72
2021/09/29 16:31:33;;;;;;;38.38;17.63;;;;;;;;;;8384963;28;20351;-72
2021/09/29 16:35:48;;;;;;;47.83;20.05;;;;;;;;;;8366707;28;20488;-73
2021/09/29 16:39:53;;;;;;;35.78;17.15;;;;;;;;;;8387482;28;20093;-73
2021/09/29 16:43:58;;;;;;;29.33;15.65;;;;;;;;;;8384487;28;20048;-73
2021/09/29 16:48:04;;;;;;;34.97;17.55;;;;;;;;;;8384117;28;20058;-73
2021/09/29 16:52:13;;;;;;;46.92;22.35;;;;;;;;;;8385681;28;20435;-74
2021/09/29 16:56:18;;;;;;;49.17;23.35;;;;;;;;;;8349064;28;20374;-73
2021/09/29 17:00:25;;;;;;;41.38;20.25;;;;;;;;;;8332394;28;20673;-73
2021/09/29 17:04:31;;;;;;;49.30;20.30;;;;;;;;;;8350908;28;20340;-73
2021/09/29 17:08:38;;;;;;;43.33;16.90;;;;;;;;;;8348977;28;20367;-73
2021/09/29 17:12:43;;;;;;;45.65;23.67;;;;;;;;;;8311463;28;20533;-73
2021/09/29 17:16:48;;;;;;;44.97;18.90;;;;;;;;;;8327897;28;20536;-73
2021/09/29 17:20:54;;;;;;;102.70;46.08;;;;;;;;;;8327976;28;20467;-73
2021/09/29 17:24:58;;;;;;;46.03;22.10;;;;;;;;;;8326507;28;20497;-73
2021/09/29 17:29:04;;;;;;;86.68;36.38;;;;;;;;;;8247433;28;20444;-73
2021/09/29 17:33:23;;;;;;;54.17;21.23;;;;;;;;;;8262566;28;20344;-72
2021/09/29 17:55:23;;;;;;;45.50;20.38;;;;;;;;;;8184805;28;20468;-72
2021/09/29 17:59:27;;;;;;;81.60;33.33;;;;;;;;;;8259340;28;20533;-73
2021/09/29 18:03:35;;;;;;;73.53;32.33;;;;;;;;;;8261513;28;20489;-73
2021/09/29 18:07:42;;;;;;;34.30;16.90;;;;;;;;;;8258592;28;20079;-73
2021/09/29 18:11:48;;;;;;;33.53;15.60;;;;;;;;;;8259084;28;20464;-73
2021/09/29 18:15:53;;;;;;;29.48;13.95;;;;;;;;;;8259640;28;20498;-73
2021/09/29 18:19:58;;;;;;;31.08;14.23;;;;;;;;;;8258609;28;20464;-73
2021/09/29 18:24:04;;;;;;;34.53;15.32;;;;;;;;;;8258578;28;20456;-73
2021/09/29 18:28:10;;;;;;;31.88;18.45;;;;;;;;;;8259855;28;20394;-73
2021/09/29 18:32:15;;;;;;;34.58;16.92;;;;;;;;;;8257390;28;20063;-73
2021/09/29 18:36:23;;;;;;;55.72;24.17;;;;;;;;;;8257438;28;20472;-75
2021/09/29 18:40:28;;;;;;;99.10;38.30;;;;;;;;;;8261492;28;20452;-73
2021/09/29 18:44:39;;;;;;;69.80;25.63;;;;;;;;;;8203674;28;20488;-73
2021/09/29 18:48:44;;;;;;;43.85;19.20;;;;;;;;;;8245830;28;20505;-73
2021/09/29 18:52:49;;;;;;;88.45;31.95;;;;;;;;;;8259102;28;20467;-72
2021/09/29 19:10:12;;;;;;;97.68;34.90;;;;;;;;;;8233912;28;20475;-74
2021/09/29 19:14:17;;;;;;;105.88;38.97;;;;;;;;;;8257851;28;20458;-72
2021/09/29 19:18:24;;;;;;;107.93;40.75;;;;;;;;;;8258312;28;20392;-72
2021/09/29 19:22:29;;;;;;;106.32;40.08;;;;;;;;;;8256704;28;20590;-73
2021/09/29 19:26:34;;;;;;;68.30;30.02;;;;;;;;;;8256191;28;20379;-72
2021/09/29 19:30:41;;;;;;;59.10;24.25;;;;;;;;;;8255229;28;20349;-74
2021/09/29 19:34:46;;;;;;;55.03;22.20;;;;;;;;;;8256575;28;20468;-73
2021/09/29 19:38:53;;;;;;;129.00;47.47;;;;;;;;;;8257658;28;20375;-72
2021/09/29 19:42:58;;;;;;;233.45;91.40;;;;;;;;;;8256445;28;20344;-72
2021/09/29 19:47:08;;;;;;;182.00;66.85;;;;;;;;;;8256108;28;20492;-72
2021/09/29 20:08:33;;;;;;;47.33;19.35;;;;;;;;;;8255933;28;20506;-73
2021/09/29 20:12:41;;;;;;;69.57;23.73;;;;;;;;;;8255288;28;20364;-72
2021/09/29 20:16:47;;;;;;;54.03;21.75;;;;;;;;;;8239776;28;20344;-73
2021/09/29 20:20:52;;;;;;;47.90;20.05;;;;;;;;;;8257201;28;20391;-72
2021/09/29 20:24:57;;;;;;;52.08;21.48;;;;;;;;;;8256803;28;20403;-73
2021/09/29 20:29:06;;;;;;;150.35;44.15;;;;;;;;;;8256792;28;20484;-72
2021/09/29 20:33:17;;;;;;;44.08;17.25;;;;;;;;;;8255295;28;20347;-72
2021/09/29 20:46:07;;;;;;;104.35;31.02;;;;;;;;;;8227658;28;20363;-73
2021/09/29 20:50:15;;;;;;;67.40;23.88;;;;;;;;;;8262624;28;20340;-72
2021/09/29 20:54:23;;;;;;;39.33;17.75;;;;;;;;;;8265278;28;20462;-74
2021/09/29 20:58:28;;;;;;;29.38;13.77;;;;;;;;;;8261949;28;20472;-72
2021/09/29 21:02:33;;;;;;;46.58;22.15;;;;;;;;;;8262090;28;20530;-72
2021/09/29 21:06:40;;;;;;;50.15;22.73;;;;;;;;;;8262156;28;20045;-72
2021/09/29 21:10:48;;;;;;;54.55;22.75;;;;;;;;;;8261877;28;20407;-72
2021/09/29 21:14:58;;;;;;;53.65;22.85;;;;;;;;;;8262429;28;20348;-72
2021/09/29 21:19:06;;;;;;;43.90;18.17;;;;;;;;;;8261958;28;20486;-72
2021/09/29 21:23:14;;;;;;;35.58;16.83;;;;;;;;;;8259862;28;20464;-72
2021/09/29 21:27:21;;;;;;;31.73;17.38;;;;;;;;;;8244362;28;20348;-72
2021/09/29 21:31:26;;;;;;;31.67;16.05;;;;;;;;;;8261262;28;20359;-72
2021/09/29 21:35:31;;;;;;;36.13;17.08;;;;;;;;;;8263855;28;20486;-72
2021/09/29 21:39:46;;;;;;;31.30;16.35;;;;;;;;;;8261461;28;20360;-72
2021/09/29 22:19:22;;;;;;;37.90;17.25;;;;;;;;;;8259313;28;20452;-75
2021/09/29 22:24:00;;;;;;;42.20;18.70;;;;;;;;;;8258969;28;20345;-74
2021/09/29 23:07:46;;;;;;;46.15;21.48;;;;;;;;;;8255828;28;20472;-75
2021/09/29 23:11:58;;;;;;;107.53;31.13;;;;;;;;;;8258343;28;20460;-74
2021/09/29 23:33:35;;;;;;;37.90;18.95;;;;;;;;;;8257632;28;20490;-75
2021/09/29 23:37:44;;;;;;;36.50;19.80;;;;;;;;;;8270996;28;20351;-75
2021/09/29 23:41:50;;;;;;;44.08;20.20;;;;;;;;;;8257049;28;20384;-74
2021/09/29 23:45:55;;;;;;;35.45;17.65;;;;;;;;;;8254991;28;20361;-74
2021/09/29 23:50:00;;;;;;;40.05;18.35;;;;;;;;;;8257279;28;20471;-75
2021/09/29 23:54:05;;;;;;;37.47;18.60;;;;;;;;;;8255512;28;20480;-76
2021/09/29 23:58:10;;;;;;;41.13;19.80;;;;;;;;;;8256505;28;20403;-74
